Etusivu
METAR-TAF:

METAR-TAF

Lentoasemat :

Yakima, Washington, Yhdysvallat

Leveyspiiri: 46-33-51N, Pituuspiiri: 120-32-01W, korkeus merenpinnasta: 333 m

Tämänhetkinen sää

Tämä raportti tehtiin 29 minuuttia sitten, kello 02.53 UTC
Tuuli 4 kn lännestä
Lämpötila 2°C
Kosteus 55%
Ilmanpaine 1024 hPa
Näkyvyys: 16.1 km
selkeää

METAR: KYKM 280253Z 26004KT 10SM CLR 02/M06 A3023 RMK AO2 SLP250 T00171061 53003

Aika: 20:22 (03:22 UTC)

Sääennuste

Tämä raportti tehtiin 4 tuntia ja 2 minuuttia sitten, kello 23.20 UTC
Ennuste voimassa 28. päivästä klo 00 UTC - 28. päivään klo 24 UTC
Tuuli 4 kn eri suunnista
Näkyvyys: 10 km
selkeää
From 28. päivästä klo 0400 UTC
Tuuli 5 kn lännestä
Näkyvyys: 10 km
selkeää
From 28. päivästä klo 1800 UTC
Tuuli 4 kn eri suunnista
Näkyvyys: 10 km
selkeää

TAF: KYKM 272320Z 2800/2824 VRB04KT P6SM SKC FM280400 28005KT P6SM SKC FM281800 VRB04KT P6SM SKC

Säähavainnot ja -ennusteet yli 4000 lentoasemalta (METAR- ja TAF-raportit).

Käytössä olevat sääasemat on merkitty karttaan keltaisilla ja punaisilla pisteillä.

Aseta hiiri pisteen päälle nähdäksesi sääaseman nimen.

Klikkaa sitten nähdäksesi säähavainnot ja -ennusteet.

Kartan vaihtaminen: klikkaa mustalla rastilla varustettuja vihreitä pisteitä, niin voit zoomata sisään; viivalla varustettua vihreää pistettä, niin voit zoomata ulos tai vihreitä nuolia, niin pääset viereisille kartoille.


METAR-TAF: